sensor_id;sensor_type;location;lat;lon;timestamp;pressure;altitude;pressure_sealevel;temperature;humidity
52625;BME280;38519;52.540;13.410;2023-08-01T00:02:02;97452.47;;;12.74;100.00
52625;BME280;38519;52.540;13.410;2023-08-01T00:04:27;97438.44;;;12.67;100.00
52625;BME280;38519;52.540;13.410;2023-08-01T00:06:52;97441.91;;;12.63;100.00
52625;BME280;38519;52.540;13.410;2023-08-01T00:09:18;97434.84;;;12.57;100.00
52625;BME280;38519;52.540;13.410;2023-08-01T00:11:43;97434.81;;;12.56;100.00
52625;BME280;38519;52.540;13.410;2023-08-01T00:14:08;97428.66;;;12.52;100.00
52625;BME280;38519;52.540;13.410;2023-08-01T00:16:33;97422.50;;;12.47;100.00
52625;BME280;38519;52.540;13.410;2023-08-01T00:18:59;97417.22;;;12.44;100.00
52625;BME280;38519;52.540;13.410;2023-08-01T00:21:25;97411.91;;;12.36;100.00
52625;BME280;38519;52.540;13.410;2023-08-01T00:23:50;97407.44;;;12.31;100.00
52625;BME280;38519;52.540;13.410;2023-08-01T00:26:16;97409.13;;;12.26;100.00
52625;BME280;38519;52.540;13.410;2023-08-01T00:28:42;97407.25;;;12.14;100.00
52625;BME280;38519;52.540;13.410;2023-08-01T00:31:08;97403.69;;;12.07;100.00
52625;BME280;38519;52.540;13.410;2023-08-01T00:33:36;97398.34;;;11.99;100.00
52625;BME280;38519;52.540;13.410;2023-08-01T00:36:01;97394.75;;;11.93;100.00
52625;BME280;38519;52.540;13.410;2023-08-01T00:38:26;97381.53;;;11.85;100.00
52625;BME280;38519;52.540;13.410;2023-08-01T00:40:52;97372.78;;;11.81;100.00
52625;BME280;38519;52.540;13.410;2023-08-01T00:43:17;97369.19;;;11.76;100.00
52625;BME280;38519;52.540;13.410;2023-08-01T00:45:43;97361.28;;;11.69;100.00
52625;BME280;38519;52.540;13.410;2023-08-01T00:48:09;97357.66;;;11.62;100.00
52625;BME280;38519;52.540;13.410;2023-08-01T00:50:35;97354.19;;;11.61;100.00
52625;BME280;38519;52.540;13.410;2023-08-01T00:53:00;97357.59;;;11.54;100.00
52625;BME280;38519;52.540;13.410;2023-08-01T00:55:26;97354.91;;;11.51;100.00
52625;BME280;38519;52.540;13.410;2023-08-01T00:57:52;97354.03;;;11.51;100.00
52625;BME280;38519;52.540;13.410;2023-08-01T01:00:18;97345.16;;;11.41;100.00
52625;BME280;38519;52.540;13.410;2023-08-01T01:02:44;97339.91;;;11.39;100.00
52625;BME280;38519;52.540;13.410;2023-08-01T01:05:09;97338.22;;;11.41;100.00
52625;BME280;38519;52.540;13.410;2023-08-01T01:07:34;97342.50;;;11.38;100.00
52625;BME280;38519;52.540;13.410;2023-08-01T01:10:00;97334.66;;;11.38;100.00
52625;BME280;38519;52.540;13.410;2023-08-01T01:12:25;97332.06;;;11.38;100.00
52625;BME280;38519;52.540;13.410;2023-08-01T01:14:51;97330.41;;;11.41;100.00
52625;BME280;38519;52.540;13.410;2023-08-01T01:17:17;97328.56;;;11.37;100.00
52625;BME280;38519;52.540;13.410;2023-08-01T01:19:42;97322.53;;;11.40;100.00
52625;BME280;38519;52.540;13.410;2023-08-01T01:22:08;97321.66;;;11.41;100.00
52625;BME280;38519;52.540;13.410;2023-08-01T01:24:34;97298.06;;;11.36;100.00
52625;BME280;38519;52.540;13.410;2023-08-01T01:27:00;97285.00;;;11.35;100.00
52625;BME280;38519;52.540;13.410;2023-08-01T01:29:26;97274.53;;;11.33;100.00
52625;BME280;38519;52.540;13.410;2023-08-01T01:31:52;97269.25;;;11.28;100.00
52625;BME280;38519;52.540;13.410;2023-08-01T01:34:18;97264.94;;;11.32;100.00
52625;BME280;38519;52.540;13.410;2023-08-01T01:36:45;97265.72;;;11.26;100.00
52625;BME280;38519;52.540;13.410;2023-08-01T01:39:10;97252.72;;;11.31;100.00
52625;BME280;38519;52.540;13.410;2023-08-01T01:41:35;97257.94;;;11.29;100.00
52625;BME280;38519;52.540;13.410;2023-08-01T01:44:01;97265.84;;;11.36;100.00
52625;BME280;38519;52.540;13.410;2023-08-01T01:46:26;97254.53;;;11.35;100.00
52625;BME280;38519;52.540;13.410;2023-08-01T01:48:51;97251.88;;;11.32;100.00
52625;BME280;38519;52.540;13.410;2023-08-01T01:51:16;97267.56;;;11.32;100.00
52625;BME280;38519;52.540;13.410;2023-08-01T01:53:42;97262.34;;;11.32;100.00
52625;BME280;38519;52.540;13.410;2023-08-01T01:56:07;97254.50;;;11.32;100.00
52625;BME280;38519;52.540;13.410;2023-08-01T01:58:32;97255.22;;;11.23;100.00
52625;BME280;38519;52.540;13.410;2023-08-01T02:00:58;97242.19;;;11.25;100.00
52625;BME280;38519;52.540;13.410;2023-08-01T02:03:23;97230.00;;;11.22;100.00
52625;BME280;38519;52.540;13.410;2023-08-01T02:05:48;97221.31;;;11.26;100.00
52625;BME280;38519;52.540;13.410;2023-08-01T02:08:13;97220.47;;;11.27;100.00
52625;BME280;38519;52.540;13.410;2023-08-01T02:10:39;97208.22;;;11.23;100.00
52625;BME280;38519;52.540;13.410;2023-08-01T02:13:04;97202.16;;;11.24;100.00
52625;BME280;38519;52.540;13.410;2023-08-01T02:15:30;97191.72;;;11.24;100.00
52625;BME280;38519;52.540;13.410;2023-08-01T02:17:56;97201.25;;;11.22;100.00
52625;BME280;38519;52.540;13.410;2023-08-01T02:20:22;97195.13;;;11.20;100.00
52625;BME280;38519;52.540;13.410;2023-08-01T02:22:47;97194.28;;;11.21;100.00
52625;BME280;38519;52.540;13.410;2023-08-01T02:25:12;97186.44;;;11.21;100.00
52625;BME280;38519;52.540;13.410;2023-08-01T02:27:38;97186.47;;;11.23;100.00
52625;BME280;38519;52.540;13.410;2023-08-01T02:30:03;97181.25;;;11.24;100.00
52625;BME280;38519;52.540;13.410;2023-08-01T02:32:30;97182.97;;;11.21;100.00
52625;BME280;38519;52.540;13.410;2023-08-01T02:34:55;97181.25;;;11.24;100.00
52625;BME280;38519;52.540;13.410;2023-08-01T02:37:21;97177.81;;;11.25;100.00
52625;BME280;38519;52.540;13.410;2023-08-01T02:39:46;97182.19;;;11.29;100.00
52625;BME280;38519;52.540;13.410;2023-08-01T02:42:11;97179.63;;;11.33;100.00
52625;BME280;38519;52.540;13.410;2023-08-01T02:44:37;97170.91;;;11.32;100.00
52625;BME280;38519;52.540;13.410;2023-08-01T02:47:02;97161.25;;;11.26;100.00
52625;BME280;38519;52.540;13.410;2023-08-01T02:49:28;97164.78;;;11.28;100.00
52625;BME280;38519;52.540;13.410;2023-08-01T02:51:53;97161.34;;;11.33;100.00
52625;BME280;38519;52.540;13.410;2023-08-01T02:54:18;97162.22;;;11.32;100.00
52625;BME280;38519;52.540;13.410;2023-08-01T02:56:43;97160.41;;;11.27;100.00
52625;BME280;38519;52.540;13.410;2023-08-01T02:59:09;97157.84;;;11.32;100.00
52625;BME280;38519;52.540;13.410;2023-08-01T03:01:35;97160.47;;;11.32;100.00
52625;BME280;38519;52.540;13.410;2023-08-01T03:04:02;97150.06;;;11.35;100.00
52625;BME280;38519;52.540;13.410;2023-08-01T03:06:27;97138.66;;;11.28;100.00
52625;BME280;38519;52.540;13.410;2023-08-01T03:08:52;97146.53;;;11.32;100.00
52625;BME280;38519;52.540;13.410;2023-08-01T03:11:18;97140.47;;;11.34;100.00
52625;BME280;38519;52.540;13.410;2023-08-01T03:13:45;97146.56;;;11.35;100.00
52625;BME280;38519;52.540;13.410;2023-08-01T03:16:11;97137.88;;;11.36;100.00
52625;BME280;38519;52.540;13.410;2023-08-01T03:18:36;97137.00;;;11.35;100.00
52625;BME280;38519;52.540;13.410;2023-08-01T03:21:02;97121.34;;;11.37;100.00
52625;BME280;38519;52.540;13.410;2023-08-01T03:23:29;97128.25;;;11.33;100.00
52625;BME280;38519;52.540;13.410;2023-08-01T03:25:54;97122.22;;;11.37;100.00
52625;BME280;38519;52.540;13.410;2023-08-01T03:28:19;97119.59;;;11.36;100.00
52625;BME280;38519;52.540;13.410;2023-08-01T03:30:44;97115.22;;;11.36;100.00
52625;BME280;38519;52.540;13.410;2023-08-01T03:33:10;97117.88;;;11.38;100.00
52625;BME280;38519;52.540;13.410;2023-08-01T03:35:35;97109.13;;;11.34;100.00
52625;BME280;38519;52.540;13.410;2023-08-01T03:38:00;97102.13;;;11.33;100.00
52625;BME280;38519;52.540;13.410;2023-08-01T03:40:27;97101.22;;;11.28;100.00
52625;BME280;38519;52.540;13.410;2023-08-01T03:42:52;97103.84;;;11.29;100.00
52625;BME280;38519;52.540;13.410;2023-08-01T03:45:17;97103.84;;;11.31;100.00
52625;BME280;38519;52.540;13.410;2023-08-01T03:47:42;97103.03;;;11.34;100.00
52625;BME280;38519;52.540;13.410;2023-08-01T03:50:08;97096.91;;;11.30;100.00
52625;BME280;38519;52.540;13.410;2023-08-01T03:52:33;97095.19;;;11.32;100.00
52625;BME280;38519;52.540;13.410;2023-08-01T03:54:59;97090.81;;;11.33;100.00
52625;BME280;38519;52.540;13.410;2023-08-01T03:57:24;97096.06;;;11.36;100.00
52625;BME280;38519;52.540;13.410;2023-08-01T03:59:49;97097.84;;;11.37;100.00
52625;BME280;38519;52.540;13.410;2023-08-01T04:02:14;97094.38;;;11.39;100.00
52625;BME280;38519;52.540;13.410;2023-08-01T04:04:40;97095.28;;;11.41;100.00
52625;BME280;38519;52.540;13.410;2023-08-01T04:07:05;97089.22;;;11.45;100.00
52625;BME280;38519;52.540;13.410;2023-08-01T04:09:30;97098.84;;;11.48;100.00
52625;BME280;38519;52.540;13.410;2023-08-01T04:11:56;97080.56;;;11.48;100.00
52625;BME280;38519;52.540;13.410;2023-08-01T04:14:21;97086.66;;;11.50;100.00
52625;BME280;38519;52.540;13.410;2023-08-01T04:16:46;97082.34;;;11.54;100.00
52625;BME280;38519;52.540;13.410;2023-08-01T04:19:12;97085.00;;;11.58;100.00
52625;BME280;38519;52.540;13.410;2023-08-01T04:21:38;97078.03;;;11.56;100.00
52625;BME280;38519;52.540;13.410;2023-08-01T04:24:03;97076.31;;;11.59;100.00
52625;BME280;38519;52.540;13.410;2023-08-01T04:26:28;97077.19;;;11.61;100.00
52625;BME280;38519;52.540;13.410;2023-08-01T04:28:55;97079.78;;;11.58;100.00
52625;BME280;38519;52.540;13.410;2023-08-01T04:31:20;97085.06;;;11.63;100.00
52625;BME280;38519;52.540;13.410;2023-08-01T04:33:45;97077.25;;;11.68;100.00
52625;BME280;38519;52.540;13.410;2023-08-01T04:36:10;97077.31;;;11.72;100.00
52625;BME280;38519;52.540;13.410;2023-08-01T04:38:36;97077.25;;;11.68;100.00
52625;BME280;38519;52.540;13.410;2023-08-01T04:41:01;97070.25;;;11.65;100.00
52625;BME280;38519;52.540;13.410;2023-08-01T04:43:28;97071.19;;;11.69;100.00
52625;BME280;38519;52.540;13.410;2023-08-01T04:45:53;97076.38;;;11.65;100.00
52625;BME280;38519;52.540;13.410;2023-08-01T04:48:18;97072.00;;;11.64;100.00
52625;BME280;38519;52.540;13.410;2023-08-01T04:50:44;97064.19;;;11.68;100.00
52625;BME280;38519;52.540;13.410;2023-08-01T04:53:12;97065.97;;;11.69;100.00
52625;BME280;38519;52.540;13.410;2023-08-01T04:55:39;97049.38;;;11.66;100.00
52625;BME280;38519;52.540;13.410;2023-08-01T04:58:06;97053.81;;;11.74;100.00
52625;BME280;38519;52.540;13.410;2023-08-01T05:00:31;97048.63;;;11.80;100.00
52625;BME280;38519;52.540;13.410;2023-08-01T05:02:56;97046.00;;;11.78;100.00
52625;BME280;38519;52.540;13.410;2023-08-01T05:05:22;97045.16;;;11.81;100.00
52625;BME280;38519;52.540;13.410;2023-08-01T05:07:47;97035.59;;;11.81;100.00
52625;BME280;38519;52.540;13.410;2023-08-01T05:10:12;97033.81;;;11.80;100.00
52625;BME280;38519;52.540;13.410;2023-08-01T05:12:39;97033.81;;;11.79;100.00
52625;BME280;38519;52.540;13.410;2023-08-01T05:15:04;97032.97;;;11.81;100.00
52625;BME280;38519;52.540;13.410;2023-08-01T05:17:30;97032.06;;;11.81;100.00
52625;BME280;38519;52.540;13.410;2023-08-01T05:19:55;97029.50;;;11.84;100.00
52625;BME280;38519;52.540;13.410;2023-08-01T05:22:20;97024.25;;;11.84;100.00
52625;BME280;38519;52.540;13.410;2023-08-01T05:24:45;97018.19;;;11.85;100.00
52625;BME280;38519;52.540;13.410;2023-08-01T05:27:11;97017.31;;;11.83;100.00
52625;BME280;38519;52.540;13.410;2023-08-01T05:29:36;97017.31;;;11.89;100.00
52625;BME280;38519;52.540;13.410;2023-08-01T05:32:01;97008.59;;;11.87;100.00
52625;BME280;38519;52.540;13.410;2023-08-01T05:34:28;97010.31;;;11.82;100.00
52625;BME280;38519;52.540;13.410;2023-08-01T05:36:53;97015.63;;;11.90;100.00
52625;BME280;38519;52.540;13.410;2023-08-01T05:39:18;97016.53;;;11.93;100.00
52625;BME280;38519;52.540;13.410;2023-08-01T05:41:45;97011.31;;;11.95;100.00
52625;BME280;38519;52.540;13.410;2023-08-01T05:44:24;97000.84;;;11.92;100.00
52625;BME280;38519;52.540;13.410;2023-08-01T05:46:51;97013.06;;;11.93;100.00
52625;BME280;38519;52.540;13.410;2023-08-01T05:49:16;97003.47;;;11.95;100.00
52625;BME280;38519;52.540;13.410;2023-08-01T05:51:42;97003.47;;;11.95;100.00
52625;BME280;38519;52.540;13.410;2023-08-01T05:54:07;97001.78;;;12.00;100.00
52625;BME280;38519;52.540;13.410;2023-08-01T05:56:32;97001.78;;;12.00;100.00
52625;BME280;38519;52.540;13.410;2023-08-01T05:58:57;97006.97;;;11.95;100.00
52625;BME280;38519;52.540;13.410;2023-08-01T06:01:23;96997.41;;;11.97;100.00
52625;BME280;38519;52.540;13.410;2023-08-01T06:03:48;96995.63;;;11.95;100.00
52625;BME280;38519;52.540;13.410;2023-08-01T06:06:13;96998.31;;;12.02;100.00
52625;BME280;38519;52.540;13.410;2023-08-01T06:08:38;97004.41;;;12.05;100.00
52625;BME280;38519;52.540;13.410;2023-08-01T06:11:04;97005.31;;;12.10;100.00
52625;BME280;38519;52.540;13.410;2023-08-01T06:13:30;97007.09;;;12.11;100.00
52625;BME280;38519;52.540;13.410;2023-08-01T06:15:55;96998.38;;;12.13;100.00
52625;BME280;38519;52.540;13.410;2023-08-01T06:18:26;97006.19;;;12.12;100.00
52625;BME280;38519;52.540;13.410;2023-08-01T06:20:52;96999.25;;;12.14;100.00
52625;BME280;38519;52.540;13.410;2023-08-01T06:23:17;97001.00;;;12.16;100.00
52625;BME280;38519;52.540;13.410;2023-08-01T06:25:43;96993.16;;;12.18;100.00
52625;BME280;38519;52.540;13.410;2023-08-01T06:28:08;97004.53;;;12.20;100.00
52625;BME280;38519;52.540;13.410;2023-08-01T06:30:34;97003.63;;;12.18;100.00
52625;BME280;38519;52.540;13.410;2023-08-01T06:32:59;97002.75;;;12.16;100.00
52625;BME280;38519;52.540;13.410;2023-08-01T06:35:24;96997.53;;;12.17;100.00
52625;BME280;38519;52.540;13.410;2023-08-01T06:37:49;96989.69;;;12.17;100.00
52625;BME280;38519;52.540;13.410;2023-08-01T06:40:15;96992.34;;;12.20;100.00
52625;BME280;38519;52.540;13.410;2023-08-01T06:42:41;96988.00;;;12.27;100.00
52625;BME280;38519;52.540;13.410;2023-08-01T06:45:08;96995.88;;;12.29;100.00
52625;BME280;38519;52.540;13.410;2023-08-01T06:47:33;96996.72;;;12.29;100.00
52625;BME280;38519;52.540;13.410;2023-08-01T06:49:58;96991.50;;;12.29;100.00
52625;BME280;38519;52.540;13.410;2023-08-01T06:52:25;96987.16;;;12.27;100.00
52625;BME280;38519;52.540;13.410;2023-08-01T06:54:50;96994.09;;;12.25;100.00
52625;BME280;38519;52.540;13.410;2023-08-01T06:57:15;96987.13;;;12.25;100.00
52625;BME280;38519;52.540;13.410;2023-08-01T06:59:40;96991.50;;;12.29;100.00
52625;BME280;38519;52.540;13.410;2023-08-01T07:02:06;96993.25;;;12.30;100.00
52625;BME280;38519;52.540;13.410;2023-08-01T07:04:32;96995.88;;;12.32;100.00
52625;BME280;38519;52.540;13.410;2023-08-01T07:06:57;96988.03;;;12.30;100.00
52625;BME280;38519;52.540;13.410;2023-08-01T07:09:22;97001.16;;;12.39;100.00
52625;BME280;38519;52.540;13.410;2023-08-01T07:11:48;96994.22;;;12.45;100.00
52625;BME280;38519;52.540;13.410;2023-08-01T07:14:13;96985.53;;;12.52;100.00
52625;BME280;38519;52.540;13.410;2023-08-01T07:16:38;96984.66;;;12.54;100.00
52625;BME280;38519;52.540;13.410;2023-08-01T07:19:03;96992.56;;;12.61;100.00
52625;BME280;38519;52.540;13.410;2023-08-01T07:21:29;96982.94;;;12.61;100.00
52625;BME280;38519;52.540;13.410;2023-08-01T07:23:54;96984.75;;;12.68;100.00
52625;BME280;38519;52.540;13.410;2023-08-01T07:26:19;96991.75;;;12.77;100.00
52625;BME280;38519;52.540;13.410;2023-08-01T07:28:45;96992.59;;;12.68;100.00
52625;BME280;38519;52.540;13.410;2023-08-01T07:31:11;96983.94;;;12.85;100.00
52625;BME280;38519;52.540;13.410;2023-08-01T07:33:36;96983.06;;;12.92;100.00
52625;BME280;38519;52.540;13.410;2023-08-01T07:36:03;96970.00;;;12.93;100.00
52625;BME280;38519;52.540;13.410;2023-08-01T07:38:29;96969.16;;;13.02;100.00
52625;BME280;38519;52.540;13.410;2023-08-01T07:40:56;96954.31;;;13.07;100.00
52625;BME280;38519;52.540;13.410;2023-08-01T07:43:22;96967.47;;;13.18;100.00
52625;BME280;38519;52.540;13.410;2023-08-01T07:45:48;96965.69;;;13.17;100.00
52625;BME280;38519;52.540;13.410;2023-08-01T07:48:15;96978.84;;;13.31;100.00
52625;BME280;38519;52.540;13.410;2023-08-01T07:50:40;96977.97;;;13.35;100.00
52625;BME280;38519;52.540;13.410;2023-08-01T07:53:06;96966.66;;;13.35;100.00
52625;BME280;38519;52.540;13.410;2023-08-01T07:55:34;96959.63;;;13.29;100.00
52625;BME280;38519;52.540;13.410;2023-08-01T07:58:01;96963.16;;;13.40;100.00
52625;BME280;38519;52.540;13.410;2023-08-01T08:00:26;96948.31;;;13.41;100.00
52625;BME280;38519;52.540;13.410;2023-08-01T08:02:52;96943.09;;;13.52;100.00
52625;BME280;38519;52.540;13.410;2023-08-01T08:05:18;96953.56;;;13.61;100.00
52625;BME280;38519;52.540;13.410;2023-08-01T08:07:43;96964.94;;;13.64;100.00
52625;BME280;38519;52.540;13.410;2023-08-01T08:10:09;96968.44;;;13.80;100.00
52625;BME280;38519;52.540;13.410;2023-08-01T08:12:36;96974.50;;;14.06;100.00
52625;BME280;38519;52.540;13.410;2023-08-01T08:15:01;96978.00;;;14.21;100.00
52625;BME280;38519;52.540;13.410;2023-08-01T08:17:27;96979.69;;;14.44;100.00
52625;BME280;38519;52.540;13.410;2023-08-01T08:19:53;96986.69;;;14.57;100.00
52625;BME280;38519;52.540;13.410;2023-08-01T08:22:18;96990.19;;;14.69;100.00
52625;BME280;38519;52.540;13.410;2023-08-01T08:24:43;96985.78;;;14.75;100.00
52625;BME280;38519;52.540;13.410;2023-08-01T08:27:08;96994.53;;;14.71;100.00
52625;BME280;38519;52.540;13.410;2023-08-01T08:29:34;96994.53;;;14.65;100.00
52625;BME280;38519;52.540;13.410;2023-08-01T08:31:59;96995.44;;;14.69;100.00
52625;BME280;38519;52.540;13.410;2023-08-01T08:34:24;96991.06;;;14.62;100.00
52625;BME280;38519;52.540;13.410;2023-08-01T08:36:50;96989.25;;;14.78;100.00
52625;BME280;38519;52.540;13.410;2023-08-01T08:39:16;96982.16;;;14.98;100.00
52625;BME280;38519;52.540;13.410;2023-08-01T08:41:45;96982.09;;;15.14;100.00
52625;BME280;38519;52.540;13.410;2023-08-01T08:44:14;96987.41;;;15.06;100.00
52625;BME280;38519;52.540;13.410;2023-08-01T08:46:41;96988.22;;;15.17;100.00
52625;BME280;38519;52.540;13.410;2023-08-01T08:49:08;96991.63;;;15.35;100.00
52625;BME280;38519;52.540;13.410;2023-08-01T08:51:33;96989.03;;;15.25;100.00
52625;BME280;38519;52.540;13.410;2023-08-01T08:54:00;96983.00;;;15.05;100.00
52625;BME280;38519;52.540;13.410;2023-08-01T08:56:26;96981.25;;;15.04;100.00
52625;BME280;38519;52.540;13.410;2023-08-01T08:58:53;96982.16;;;15.00;100.00
52625;BME280;38519;52.540;13.410;2023-08-01T09:01:18;96983.94;;;14.99;100.00
52625;BME280;38519;52.540;13.410;2023-08-01T09:03:44;96979.50;;;15.06;100.00
52625;BME280;38519;52.540;13.410;2023-08-01T09:06:16;96973.31;;;15.16;100.00
52625;BME280;38519;52.540;13.410;2023-08-01T09:09:24;96977.63;;;15.28;100.00
52625;BME280;38519;52.540;13.410;2023-08-01T09:11:49;96974.09;;;15.35;100.00
52625;BME280;38519;52.540;13.410;2023-08-01T09:14:15;96967.81;;;15.53;100.00
52625;BME280;38519;52.540;13.410;2023-08-01T09:16:41;96962.44;;;15.75;100.00
52625;BME280;38519;52.540;13.410;2023-08-01T09:19:06;96973.75;;;15.89;100.00
52625;BME280;38519;52.540;13.410;2023-08-01T09:21:32;96964.81;;;16.06;100.00
52625;BME280;38519;52.540;13.410;2023-08-01T09:24:10;96973.50;;;16.14;100.00
52625;BME280;38519;52.540;13.410;2023-08-01T09:26:36;96977.00;;;16.13;100.00
52625;BME280;38519;52.540;13.410;2023-08-01T09:29:04;96976.22;;;16.05;100.00
52625;BME280;38519;52.540;13.410;2023-08-01T09:31:30;96981.50;;;16.00;100.00
52625;BME280;38519;52.540;13.410;2023-08-01T09:33:55;96976.28;;;15.95;100.00
52625;BME280;38519;52.540;13.410;2023-08-01T09:36:23;96962.38;;;15.81;100.00
52625;BME280;38519;52.540;13.410;2023-08-01T09:38:49;96967.84;;;15.52;100.00
52625;BME280;38519;52.540;13.410;2023-08-01T09:41:18;96966.03;;;15.58;100.00
52625;BME280;38519;52.540;13.410;2023-08-01T09:43:44;96969.69;;;15.34;100.00
52625;BME280;38519;52.540;13.410;2023-08-01T09:46:11;96974.13;;;15.27;100.00
52625;BME280;38519;52.540;13.410;2023-08-01T09:48:36;96977.59;;;15.29;100.00
52625;BME280;38519;52.540;13.410;2023-08-01T09:51:08;96969.00;;;15.06;100.00
52625;BME280;38519;52.540;13.410;2023-08-01T09:53:34;96981.41;;;14.64;100.00
52625;BME280;38519;52.540;13.410;2023-08-01T09:56:00;96974.44;;;14.47;100.00
52625;BME280;38519;52.540;13.410;2023-08-01T09:58:26;96973.59;;;14.45;100.00
52625;BME280;38519;52.540;13.410;2023-08-01T10:00:55;96961.31;;;14.47;100.00
52625;BME280;38519;52.540;13.410;2023-08-01T10:03:20;96968.31;;;14.53;100.00
52625;BME280;38519;52.540;13.410;2023-08-01T10:05:46;96967.47;;;14.43;100.00
52625;BME280;38519;52.540;13.410;2023-08-01T10:08:12;96965.69;;;14.48;100.00
52625;BME280;38519;52.540;13.410;2023-08-01T10:10:37;96964.84;;;14.40;100.00
52625;BME280;38519;52.540;13.410;2023-08-01T10:13:03;96961.34;;;14.36;100.00
52625;BME280;38519;52.540;13.410;2023-08-01T10:15:28;96957.00;;;14.32;100.00
52625;BME280;38519;52.540;13.410;2023-08-01T10:17:54;96957.00;;;14.31;100.00
52625;BME280;38519;52.540;13.410;2023-08-01T10:20:20;96959.63;;;14.32;100.00
52625;BME280;38519;52.540;13.410;2023-08-01T10:22:47;96961.38;;;14.27;100.00
52625;BME280;38519;52.540;13.410;2023-08-01T10:25:13;96969.25;;;14.21;100.00
52625;BME280;38519;52.540;13.410;2023-08-01T10:27:38;96962.25;;;14.26;100.00
52625;BME280;38519;52.540;13.410;2023-08-01T10:30:04;96956.09;;;14.38;100.00
52625;BME280;38519;52.540;13.410;2023-08-01T10:32:33;96947.31;;;14.47;100.00
52625;BME280;38519;52.540;13.410;2023-08-01T10:34:58;96949.09;;;14.38;100.00
52625;BME280;38519;52.540;13.410;2023-08-01T10:37:24;96955.22;;;14.39;100.00
52625;BME280;38519;52.540;13.410;2023-08-01T10:39:59;96953.50;;;14.30;100.00
52625;BME280;38519;52.540;13.410;2023-08-01T10:42:24;96964.88;;;14.26;100.00
52625;BME280;38519;52.540;13.410;2023-08-01T10:44:50;96974.50;;;13.96;100.00
52625;BME280;38519;52.540;13.410;2023-08-01T10:47:15;96975.38;;;13.46;100.00
52625;BME280;38519;52.540;13.410;2023-08-01T10:49:49;95241.88;;;6.41;100.00
52625;BME280;38519;52.540;13.410;2023-08-01T10:52:24;45491.81;;;-146.17;100.00
52625;BME280;38519;52.540;13.410;2023-08-01T10:57:23;45495.78;;;-146.17;100.00
52625;BME280;38519;52.540;13.410;2023-08-01T10:59:48;45515.53;;;-146.17;100.00
52625;BME280;38519;52.540;13.410;2023-08-01T11:02:19;45511.59;;;-146.17;100.00
52625;BME280;38519;52.540;13.410;2023-08-01T11:04:44;45493.81;;;-146.17;100.00
52625;BME280;38519;52.540;13.410;2023-08-01T11:07:19;45497.75;;;-146.17;100.00
52625;BME280;38519;52.540;13.410;2023-08-01T11:09:46;45513.56;;;-146.17;100.00
52625;BME280;38519;52.540;13.410;2023-08-01T11:12:11;45515.53;;;-146.17;100.00
52625;BME280;38519;52.540;13.410;2023-08-01T11:14:36;45525.41;;;-146.17;100.00
52625;BME280;38519;52.540;13.410;2023-08-01T11:17:02;45479.97;;;-146.17;100.00
52625;BME280;38519;52.540;13.410;2023-08-01T11:19:28;45497.75;;;-146.17;100.00
52625;BME280;38519;52.540;13.410;2023-08-01T11:21:54;45501.72;;;-146.17;100.00
52625;BME280;38519;52.540;13.410;2023-08-01T11:24:21;45509.63;;;-146.17;100.00
52625;BME280;38519;52.540;13.410;2023-08-01T11:26:47;45501.72;;;-146.17;100.00
52625;BME280;38519;52.540;13.410;2023-08-01T11:29:14;45507.63;;;-146.17;100.00
52625;BME280;38519;52.540;13.410;2023-08-01T11:31:39;45468.09;;;-146.17;100.00
52625;BME280;38519;52.540;13.410;2023-08-01T11:34:06;45460.19;;;-146.17;100.00
52625;BME280;38519;52.540;13.410;2023-08-01T11:36:35;45464.16;;;-146.17;100.00
52625;BME280;38519;52.540;13.410;2023-08-01T11:39:01;45462.19;;;-146.17;100.00
52625;BME280;38519;52.540;13.410;2023-08-01T11:41:26;45476.00;;;-146.17;100.00
52625;BME280;38519;52.540;13.410;2023-08-01T11:43:52;45466.13;;;-146.17;100.00
52625;BME280;38519;52.540;13.410;2023-08-01T11:46:19;45456.25;;;-146.17;100.00
52625;BME280;38519;52.540;13.410;2023-08-01T11:48:45;45456.25;;;-146.17;100.00
52625;BME280;38519;52.540;13.410;2023-08-01T11:51:15;45446.38;;;-146.17;100.00
52625;BME280;38519;52.540;13.410;2023-08-01T11:53:40;45428.59;;;-146.17;100.00
52625;BME280;38519;52.540;13.410;2023-08-01T11:56:06;45470.09;;;-146.17;100.00
52625;BME280;38519;52.540;13.410;2023-08-01T11:58:35;45416.72;;;-146.17;100.00
52625;BME280;38519;52.540;13.410;2023-08-01T12:01:04;45446.38;;;-146.17;100.00
52625;BME280;38519;52.540;13.410;2023-08-01T12:03:30;45487.88;;;-146.17;100.00
52625;BME280;38519;52.540;13.410;2023-08-01T12:06:05;45440.44;;;-146.17;100.00
52625;BME280;38519;52.540;13.410;2023-08-01T12:08:33;45444.41;;;-146.17;100.00
52625;BME280;38519;52.540;13.410;2023-08-01T12:10:58;45450.31;;;-146.17;100.00
52625;BME280;38519;52.540;13.410;2023-08-01T12:13:24;72400.22;;;-146.17;100.00
52625;BME280;38519;52.540;13.410;2023-08-01T12:15:50;96963.16;;;14.02;100.00
52625;BME280;38519;52.540;13.410;2023-08-01T12:18:23;96977.06;;;14.39;100.00
52625;BME280;38519;52.540;13.410;2023-08-01T12:20:48;96985.84;;;14.34;100.00
52625;BME280;38519;52.540;13.410;2023-08-01T12:23:15;96987.63;;;14.10;100.00
52625;BME280;38519;52.540;13.410;2023-08-01T12:25:40;96990.25;;;14.32;100.00
52625;BME280;38519;52.540;13.410;2023-08-01T12:28:05;96998.13;;;14.33;100.00
52625;BME280;38519;52.540;13.410;2023-08-01T12:30:31;96991.97;;;14.34;100.00
52625;BME280;38519;52.540;13.410;2023-08-01T12:32:56;96988.50;;;14.23;100.00
52625;BME280;38519;52.540;13.410;2023-08-01T12:35:21;96989.34;;;14.28;100.00